Time;durP1;ratioP1;P1;durP2;ratioP2;P2;SDS_P1;SDS_P2;PMS_P1;PMS_P2;Temp;Humidity;BMP_temperature;BMP_pressure;BME280_temperature;BME280_humidity;BME280_pressure;Samples;Min_cycle;Max_cycle;Signal;HPM_P1;HPM_P2
2022/05/09 00:01:13;;;;;;;7.38;5.38;;;12.60;99.90;;;;;;5026902;28;20437;-70
2022/05/09 00:03:40;;;;;;;7.03;4.95;;;12.60;99.90;;;;;;5010587;28;20140;-70
2022/05/09 00:06:14;;;;;;;7.03;5.20;;;12.60;99.90;;;;;;5024163;28;20018;-71
2022/05/09 00:08:42;;;;;;;8.40;5.53;;;12.50;99.90;;;;;;5026261;28;20037;-70
2022/05/09 00:11:10;;;;;;;6.88;5.32;;;12.50;99.90;;;;;;5027554;28;20026;-70
2022/05/09 00:13:37;;;;;;;6.65;4.78;;;12.50;99.90;;;;;;5010713;28;20057;-69
2022/05/09 00:16:03;;;;;;;7.70;5.75;;;12.40;99.90;;;;;;5021988;28;20104;-70
2022/05/09 00:18:35;;;;;;;8.20;5.68;;;12.40;99.90;;;;;;5027141;28;20168;-70
2022/05/09 00:21:04;;;;;;;8.25;6.03;;;12.40;99.90;;;;;;5027331;28;20127;-70
2022/05/09 00:23:29;;;;;;;9.48;5.97;;;12.30;99.90;;;;;;5026199;28;20048;-70
2022/05/09 00:25:55;;;;;;;9.85;5.57;;;12.30;99.90;;;;;;5025642;28;20030;-70
2022/05/09 00:28:20;;;;;;;7.40;5.28;;;12.30;99.90;;;;;;5020569;28;20173;-70
2022/05/09 00:30:56;;;;;;;8.20;5.10;;;12.20;99.90;;;;;;5027196;28;20056;-70
2022/05/09 00:33:24;;;;;;;7.38;5.35;;;12.20;99.90;;;;;;5024714;28;20909;-70
2022/05/09 00:35:50;;;;;;;6.72;5.20;;;12.20;99.90;;;;;;5026854;28;20033;-70
2022/05/09 00:38:19;;;;;;;8.50;5.57;;;12.20;99.90;;;;;;5028810;28;20030;-70
2022/05/09 00:41:28;;;;;;;7.78;5.90;;;12.10;99.90;;;;;;5026099;28;20394;-70
2022/05/09 00:43:36;;;;;;;8.98;6.63;;;12.10;99.90;;;;;;5021031;28;20040;-70
2022/05/09 00:46:02;;;;;;;9.02;5.40;;;12.10;99.90;;;;;;5025895;28;20030;-70
2022/05/09 00:48:31;;;;;;;8.32;6.22;;;12.00;99.90;;;;;;5027971;28;20036;-70
2022/05/09 00:51:04;;;;;;;7.60;6.07;;;12.00;99.90;;;;;;5026154;28;20029;-70
2022/05/09 00:53:32;;;;;;;7.05;5.88;;;12.00;99.90;;;;;;5022703;28;20470;-70
2022/05/09 00:56:01;;;;;;;6.80;5.45;;;12.00;99.90;;;;;;5022525;28;20152;-70
2022/05/09 00:58:35;;;;;;;10.23;5.95;;;11.90;99.90;;;;;;5021492;28;20044;-69
2022/05/09 01:01:03;;;;;;;7.25;5.75;;;11.90;99.90;;;;;;5023173;28;20105;-69
2022/05/09 01:04:02;;;;;;;7.72;5.85;;;11.90;99.90;;;;;;5024816;28;20613;-71
2022/05/09 01:06:28;;;;;;;8.52;5.97;;;11.90;99.90;;;;;;5013960;28;20101;-71
2022/05/09 01:09:04;;;;;;;7.65;5.57;;;11.90;99.90;;;;;;5027991;28;20022;-71
2022/05/09 01:11:36;;;;;;;8.23;6.00;;;11.80;99.90;;;;;;5022821;28;20043;-71
2022/05/09 01:14:08;;;;;;;9.32;6.38;;;11.80;99.90;;;;;;5022173;28;20036;-71
2022/05/09 01:16:40;;;;;;;7.70;5.78;;;11.70;99.90;;;;;;5026631;28;20486;-70
2022/05/09 01:19:30;;;;;;;9.50;6.07;;;11.70;99.90;;;;;;5025337;28;20083;-71
2022/05/09 01:22:00;;;;;;;8.98;5.60;;;11.60;99.90;;;;;;5021780;28;20025;-71
2022/05/09 01:24:27;;;;;;;7.15;5.55;;;11.60;99.90;;;;;;5022966;28;20049;-71
2022/05/09 01:26:53;;;;;;;8.77;5.97;;;11.50;99.90;;;;;;5023502;28;20029;-70
2022/05/09 01:29:39;;;;;;;8.65;6.22;;;11.50;99.90;;;;;;5040859;28;20052;-70
2022/05/09 01:32:09;;;;;;;8.20;6.05;;;11.50;99.90;;;;;;5022075;28;20129;-70
2022/05/09 01:34:37;;;;;;;8.93;6.50;;;11.50;99.90;;;;;;5022075;28;20040;-70
2022/05/09 01:37:05;;;;;;;9.27;5.82;;;11.40;99.90;;;;;;5026363;28;20021;-70
2022/05/09 01:39:32;;;;;;;7.57;5.28;;;11.40;99.90;;;;;;5025859;28;20468;-71
2022/05/09 01:42:04;;;;;;;8.80;6.50;;;11.40;99.90;;;;;;5025674;28;20025;-70
2022/05/09 01:44:30;;;;;;;7.55;6.00;;;11.40;99.90;;;;;;5024294;28;20040;-71
2022/05/09 01:50:00;;;;;;;11.18;6.47;;;11.30;99.90;;;;;;5026178;28;20045;-71
2022/05/09 01:52:26;;;;;;;10.10;6.90;;;11.30;99.90;;;;;;5024247;28;20473;-71
2022/05/09 01:54:55;;;;;;;6.95;5.95;;;11.30;99.90;;;;;;5026259;28;20029;-70
2022/05/09 01:57:26;;;;;;;9.43;6.75;;;11.20;99.90;;;;;;5022385;28;20104;-71
2022/05/09 01:59:55;;;;;;;9.38;5.93;;;11.20;99.90;;;;;;5026523;28;20030;-70
2022/05/09 02:02:21;;;;;;;7.60;5.70;;;11.10;99.90;;;;;;5026178;28;20099;-71
2022/05/09 02:04:50;;;;;;;9.38;6.80;;;11.10;99.90;;;;;;5019583;28;20491;-71
2022/05/09 02:07:19;;;;;;;8.43;6.20;;;11.10;99.90;;;;;;5024489;28;20029;-71
2022/05/09 02:09:51;;;;;;;9.52;6.70;;;11.10;99.90;;;;;;5039119;28;20475;-70
2022/05/09 02:12:21;;;;;;;8.60;6.07;;;11.10;99.90;;;;;;5021680;28;20182;-71
2022/05/09 02:14:48;;;;;;;11.18;6.80;;;11.00;99.90;;;;;;5020545;28;20108;-71
2022/05/09 02:17:15;;;;;;;10.50;6.47;;;11.00;99.90;;;;;;5020030;28;20025;-71
2022/05/09 02:19:49;;;;;;;10.35;7.18;;;11.00;99.90;;;;;;5025472;28;20536;-71
2022/05/09 02:22:21;;;;;;;10.18;6.25;;;11.00;99.90;;;;;;5023322;28;20079;-70
2022/05/09 02:24:47;;;;;;;10.25;5.97;;;11.00;99.90;;;;;;5024016;28;20442;-71
2022/05/09 02:27:13;;;;;;;8.85;6.55;;;10.90;99.90;;;;;;5028069;28;20067;-71
2022/05/09 02:29:40;;;;;;;9.55;6.65;;;10.90;99.90;;;;;;5022045;28;20560;-71
2022/05/09 02:32:09;;;;;;;10.63;7.43;;;10.80;99.90;;;;;;5020262;28;20018;-72
2022/05/09 02:34:35;;;;;;;8.88;6.47;;;10.80;99.90;;;;;;5027342;28;20529;-72
2022/05/09 02:37:04;;;;;;;9.05;7.07;;;10.80;99.90;;;;;;5024267;28;20427;-72
2022/05/09 02:39:35;;;;;;;11.57;7.38;;;10.70;99.90;;;;;;5027933;28;20493;-71
2022/05/09 02:42:13;;;;;;;8.90;6.70;;;10.70;99.90;;;;;;5024260;28;20041;-72
2022/05/09 02:44:38;;;;;;;11.73;7.75;;;10.70;99.90;;;;;;5027045;28;20409;-71
2022/05/09 02:47:07;;;;;;;12.57;7.57;;;10.60;99.90;;;;;;5026281;28;20026;-70
2022/05/09 02:49:36;;;;;;;9.60;7.05;;;10.60;99.90;;;;;;5024223;28;20391;-71
2022/05/09 02:52:02;;;;;;;8.68;6.95;;;10.60;99.90;;;;;;5026427;28;20049;-71
2022/05/09 02:54:31;;;;;;;8.73;6.35;;;10.60;99.90;;;;;;5023805;28;20731;-71
2022/05/09 02:57:03;;;;;;;9.57;7.18;;;10.60;99.90;;;;;;5024798;28;20121;-71
2022/05/09 02:59:31;;;;;;;9.52;6.93;;;10.50;99.90;;;;;;5028017;28;20095;-71
2022/05/09 03:02:01;;;;;;;9.13;6.75;;;10.50;99.90;;;;;;5021507;28;20044;-71
2022/05/09 03:04:41;;;;;;;9.48;6.93;;;10.50;99.90;;;;;;5024348;28;20063;-71
2022/05/09 03:07:07;;;;;;;9.55;7.10;;;10.50;99.90;;;;;;5023290;28;20331;-71
2022/05/09 03:09:33;;;;;;;10.98;7.10;;;10.50;99.90;;;;;;5024553;28;20065;-71
2022/05/09 03:11:58;;;;;;;12.90;7.88;;;10.50;99.90;;;;;;5027420;28;20049;-71
2022/05/09 03:14:27;;;;;;;11.25;7.53;;;10.50;99.90;;;;;;5029498;28;20021;-71
2022/05/09 03:16:56;;;;;;;9.95;7.00;;;10.40;99.90;;;;;;5030192;28;20421;-70
2022/05/09 03:19:21;;;;;;;10.07;7.35;;;10.40;99.90;;;;;;5026776;28;20053;-71
2022/05/09 03:21:53;;;;;;;11.43;7.57;;;10.40;99.90;;;;;;5016729;28;20052;-72
2022/05/09 03:24:19;;;;;;;11.57;7.55;;;10.30;99.90;;;;;;5032322;28;20030;-71
2022/05/09 03:26:46;;;;;;;11.10;7.90;;;10.30;99.90;;;;;;5031232;28;20034;-72
2022/05/09 03:29:25;;;;;;;9.25;6.93;;;10.30;99.90;;;;;;5033122;28;20145;-71
2022/05/09 03:31:53;;;;;;;10.98;7.30;;;10.30;99.90;;;;;;5034111;28;20033;-72
2022/05/09 03:34:22;;;;;;;12.65;7.38;;;10.30;99.90;;;;;;5030270;28;20565;-70
2022/05/09 03:36:50;;;;;;;10.05;7.50;;;10.30;99.90;;;;;;5028018;28;20029;-71
2022/05/09 03:39:22;;;;;;;12.43;6.65;;;10.30;99.90;;;;;;5030918;28;20065;-71
2022/05/09 03:41:47;;;;;;;9.10;6.40;;;10.20;99.90;;;;;;5024957;28;20117;-71
2022/05/09 03:44:16;;;;;;;12.10;7.90;;;10.20;99.90;;;;;;5026965;28;20144;-70
2022/05/09 03:46:41;;;;;;;13.38;8.05;;;10.20;99.90;;;;;;5027310;28;20064;-70
2022/05/09 03:49:08;;;;;;;9.55;7.15;;;10.20;99.90;;;;;;5028953;28;20448;-71
2022/05/09 03:51:36;;;;;;;10.15;7.22;;;10.20;99.90;;;;;;5030683;28;20025;-71
2022/05/09 03:54:04;;;;;;;8.05;5.82;;;10.20;99.90;;;;;;5031045;28;20475;-71
2022/05/09 03:56:30;;;;;;;10.25;7.25;;;10.10;99.90;;;;;;5029286;28;20413;-71
2022/05/09 03:58:59;;;;;;;8.48;6.43;;;10.10;99.90;;;;;;5026276;28;20030;-71
2022/05/09 04:01:34;;;;;;;11.38;8.77;;;10.10;99.90;;;;;;5028415;28;20033;-71
2022/05/09 04:04:00;;;;;;;11.52;8.07;;;10.10;99.90;;;;;;5028366;28;20025;-71
2022/05/09 04:06:32;;;;;;;11.75;8.05;;;10.10;99.90;;;;;;5025555;28;20030;-70
2022/05/09 04:09:01;;;;;;;11.18;7.35;;;10.20;99.90;;;;;;5027635;28;20041;-72
2022/05/09 04:11:33;;;;;;;12.18;7.80;;;10.20;99.90;;;;;;5034000;28;20014;-71
2022/05/09 04:13:58;;;;;;;11.00;7.95;;;10.10;99.90;;;;;;5022079;28;20437;-71
2022/05/09 04:19:08;;;;;;;12.10;7.93;;;10.10;99.90;;;;;;5026325;28;20094;-71
2022/05/09 04:21:34;;;;;;;12.82;8.15;;;10.10;99.90;;;;;;5025933;28;20525;-72
2022/05/09 04:24:00;;;;;;;12.23;7.75;;;10.10;99.90;;;;;;5026789;28;20029;-71
2022/05/09 04:26:27;;;;;;;11.70;7.30;;;10.10;99.90;;;;;;5029627;28;20505;-71
2022/05/09 04:28:53;;;;;;;13.13;8.13;;;10.10;99.90;;;;;;5026388;28;20029;-71
2022/05/09 04:31:19;;;;;;;13.07;7.55;;;10.10;99.90;;;;;;5024479;28;20033;-71
2022/05/09 04:33:52;;;;;;;10.70;7.65;;;10.10;99.90;;;;;;5026141;28;20018;-71
2022/05/09 04:36:18;;;;;;;11.20;7.55;;;10.10;99.90;;;;;;5032030;28;20017;-71
2022/05/09 04:38:51;;;;;;;10.27;6.68;;;10.20;99.90;;;;;;5031939;28;20140;-70
2022/05/09 04:41:19;;;;;;;10.90;7.25;;;10.20;99.90;;;;;;5019765;28;20026;-71
2022/05/09 04:43:45;;;;;;;11.73;7.22;;;10.30;99.90;;;;;;5025039;28;20041;-71
2022/05/09 04:46:14;;;;;;;14.50;8.07;;;10.30;99.90;;;;;;5027468;28;20029;-71
2022/05/09 04:48:44;;;;;;;10.90;7.78;;;10.40;99.90;;;;;;5028502;28;20033;-70
2022/05/09 04:51:11;;;;;;;11.80;7.78;;;10.50;99.90;;;;;;5030160;28;20074;-71
2022/05/09 04:53:37;;;;;;;11.40;7.30;;;10.60;99.90;;;;;;5019750;28;20021;-72
2022/05/09 04:56:04;;;;;;;11.23;8.30;;;10.70;99.90;;;;;;5028285;28;20033;-71
2022/05/09 04:58:35;;;;;;;14.02;7.63;;;10.90;99.90;;;;;;5024601;28;20033;-70
2022/05/09 05:01:04;;;;;;;11.27;7.78;;;11.10;99.90;;;;;;5025840;28;20037;-71
2022/05/09 05:03:33;;;;;;;10.48;6.90;;;11.30;99.90;;;;;;5028340;28;20032;-72
2022/05/09 05:06:05;;;;;;;12.35;8.55;;;11.40;99.90;;;;;;5029017;28;20056;-71
2022/05/09 05:08:35;;;;;;;13.82;8.80;;;11.50;99.90;;;;;;5025232;28;20470;-70
2022/05/09 05:11:04;;;;;;;12.25;9.35;;;11.60;99.90;;;;;;5029303;28;20017;-70
2022/05/09 05:13:33;;;;;;;14.15;9.20;;;11.80;99.90;;;;;;5026105;28;20021;-71
2022/05/09 05:15:59;;;;;;;11.07;8.65;;;11.90;99.90;;;;;;5020973;28;20052;-71
2022/05/09 05:18:27;;;;;;;11.73;9.27;;;12.00;99.90;;;;;;5023545;28;20386;-71
2022/05/09 05:20:53;;;;;;;12.57;8.98;;;12.10;99.90;;;;;;5023506;28;20445;-71
2022/05/09 05:23:22;;;;;;;13.23;9.32;;;12.30;99.90;;;;;;5022218;28;20036;-71
2022/05/09 05:25:48;;;;;;;11.38;8.85;;;12.40;99.90;;;;;;5022994;28;20030;-72
2022/05/09 05:28:15;;;;;;;12.55;8.90;;;12.60;99.90;;;;;;5019940;28;20088;-71
2022/05/09 05:30:41;;;;;;;11.32;8.02;;;12.60;99.90;;;;;;5030461;28;20033;-72
2022/05/09 05:33:07;;;;;;;12.45;8.40;;;12.70;99.90;;;;;;5027794;28;20022;-71
2022/05/09 05:35:36;;;;;;;14.07;8.82;;;12.90;99.90;;;;;;5047249;22;20056;-68
2022/05/09 05:38:01;;;;;;;10.23;7.75;;;13.00;99.90;;;;;;5022236;28;20102;-69
2022/05/09 05:40:27;;;;;;;13.93;8.55;;;13.00;99.90;;;;;;5026398;28;20479;-69
2022/05/09 05:42:56;;;;;;;12.40;8.57;;;13.10;99.90;;;;;;5025095;28;20539;-69
2022/05/09 05:45:23;;;;;;;12.35;7.93;;;13.20;99.90;;;;;;5032236;28;20038;-69
2022/05/09 05:47:51;;;;;;;15.63;9.57;;;13.10;99.90;;;;;;5007678;28;20080;-69
2022/05/09 05:50:19;;;;;;;13.70;9.57;;;13.20;99.90;;;;;;5002730;28;20160;-69
2022/05/09 05:52:45;;;;;;;13.55;9.38;;;13.20;99.90;;;;;;5005430;28;20057;-70
2022/05/09 05:55:11;;;;;;;12.02;9.25;;;13.40;99.90;;;;;;5001318;28;20060;-69
2022/05/09 05:57:39;;;;;;;15.13;9.40;;;13.40;99.90;;;;;;5019680;28;20467;-69
2022/05/09 06:00:22;;;;;;;13.60;9.82;;;13.60;99.90;;;;;;5002663;28;20138;-69
2022/05/09 06:02:51;;;;;;;14.00;9.17;;;13.60;99.90;;;;;;5002990;28;20405;-69
2022/05/09 06:05:19;;;;;;;15.20;9.70;;;13.80;99.90;;;;;;5004231;28;20027;-69
2022/05/09 06:07:46;;;;;;;14.57;9.38;;;13.70;99.90;;;;;;5003575;28;20429;-69
2022/05/09 06:10:16;;;;;;;13.18;9.68;;;13.80;99.90;;;;;;4999998;28;20088;-70
2022/05/09 06:12:42;;;;;;;13.60;10.13;;;13.90;99.90;;;;;;5003153;28;20036;-69
2022/05/09 06:17:53;;;;;;;12.05;9.10;;;14.00;99.90;;;;;;5008480;28;20052;-69
2022/05/09 06:20:22;;;;;;;13.80;9.77;;;14.00;99.90;;;;;;5006731;28;20026;-69
2022/05/09 06:22:54;;;;;;;13.07;9.57;;;14.10;99.90;;;;;;5005760;28;20390;-69
2022/05/09 06:25:21;;;;;;;13.45;9.50;;;14.10;99.90;;;;;;5006008;28;20022;-70
2022/05/09 06:27:54;;;;;;;16.08;10.85;;;14.20;99.90;;;;;;5004050;28;20108;-69
2022/05/09 06:30:24;;;;;;;16.38;10.27;;;14.10;99.90;;;;;;5000041;28;20457;-70
2022/05/09 06:32:53;;;;;;;15.65;10.15;;;14.20;99.90;;;;;;5015385;28;20025;-73
2022/05/09 06:35:21;;;;;;;15.93;10.52;;;14.20;99.90;;;;;;5006337;28;20588;-69
2022/05/09 06:37:49;;;;;;;20.17;11.27;;;14.20;99.90;;;;;;4999469;28;20035;-70
2022/05/09 06:40:17;;;;;;;17.20;11.18;;;14.30;99.90;;;;;;5003472;28;20037;-69
2022/05/09 06:42:44;;;;;;;21.88;10.30;;;14.40;99.90;;;;;;5002872;28;20479;-70
2022/05/09 06:45:10;;;;;;;14.80;10.30;;;14.40;99.90;;;;;;5004268;28;20036;-69
2022/05/09 06:47:46;;;;;;;17.20;11.02;;;14.50;99.90;;;;;;5020888;28;20368;-69
2022/05/09 06:50:17;;;;;;;18.90;10.60;;;14.70;99.90;;;;;;5006778;28;20026;-68
2022/05/09 06:52:42;;;;;;;15.25;10.85;;;14.70;99.90;;;;;;5005641;28;20501;-69
2022/05/09 06:55:10;;;;;;;15.82;9.52;;;14.80;99.90;;;;;;5010021;28;20034;-72
2022/05/09 06:57:41;;;;;;;15.80;10.13;;;14.80;99.90;;;;;;5010020;28;20026;-70
2022/05/09 07:00:11;;;;;;;16.85;12.00;;;14.90;99.90;;;;;;5007050;28;20021;-69
2022/05/09 07:02:37;;;;;;;18.35;11.75;;;14.90;99.90;;;;;;5003204;28;20476;-69
2022/05/09 07:05:09;;;;;;;15.38;10.90;;;15.00;99.90;;;;;;5008495;28;20036;-69
2022/05/09 07:07:35;;;;;;;13.18;10.05;;;15.10;99.90;;;;;;5005038;28;20027;-70
2022/05/09 07:10:00;;;;;;;14.05;9.68;;;15.10;99.90;;;;;;5000999;28;20088;-70
2022/05/09 07:12:26;;;;;;;15.60;10.07;;;15.20;99.90;;;;;;5011062;28;20066;-70
2022/05/09 07:14:52;;;;;;;14.00;10.52;;;15.20;99.90;;;;;;5010004;28;20698;-72
2022/05/09 07:17:17;;;;;;;12.52;9.95;;;15.30;99.90;;;;;;5009646;28;20037;-70
2022/05/09 07:19:44;;;;;;;14.05;9.85;;;15.30;99.90;;;;;;5009351;28;20113;-70
2022/05/09 07:22:10;;;;;;;14.43;10.23;;;15.30;99.90;;;;;;5012384;28;20018;-70
2022/05/09 07:24:36;;;;;;;15.95;9.80;;;15.30;99.90;;;;;;5011898;28;20510;-70
2022/05/09 07:27:02;;;;;;;13.05;9.65;;;15.30;99.90;;;;;;5010295;28;20057;-70
2022/05/09 07:29:27;;;;;;;13.68;9.48;;;15.40;99.90;;;;;;5009670;28;20069;-70
2022/05/09 07:31:53;;;;;;;16.20;9.05;;;15.30;99.90;;;;;;5010350;28;20061;-70
2022/05/09 07:34:19;;;;;;;12.00;8.35;;;15.40;99.90;;;;;;5013178;28;20029;-70
2022/05/09 07:36:45;;;;;;;12.57;8.77;;;15.50;99.90;;;;;;5011989;28;20026;-70
2022/05/09 07:39:11;;;;;;;15.27;9.25;;;15.50;99.90;;;;;;5008517;28;20568;-70
2022/05/09 07:41:37;;;;;;;15.40;8.75;;;15.60;99.90;;;;;;5009314;28;20046;-69
2022/05/09 07:44:03;;;;;;;12.18;8.48;;;15.60;99.90;;;;;;5016409;28;20030;-70
2022/05/09 07:46:29;;;;;;;14.90;8.63;;;15.60;99.90;;;;;;5008165;28;20386;-71
2022/05/09 07:48:55;;;;;;;13.00;9.00;;;15.50;99.90;;;;;;5008148;28;20022;-70
2022/05/09 07:51:21;;;;;;;11.90;8.70;;;15.60;99.90;;;;;;5011280;28;20026;-70
2022/05/09 07:53:47;;;;;;;11.48;8.57;;;15.60;99.90;;;;;;5016615;28;20034;-71
2022/05/09 07:56:13;;;;;;;12.18;8.52;;;15.80;99.90;;;;;;5013306;28;20091;-72
2022/05/09 07:58:39;;;;;;;13.05;9.13;;;15.80;99.90;;;;;;5014949;28;20030;-71
2022/05/09 08:01:05;;;;;;;12.02;8.45;;;15.90;99.90;;;;;;5012481;28;20022;-71
2022/05/09 08:03:34;;;;;;;11.63;8.82;;;16.00;99.90;;;;;;5009283;28;20124;-73
2022/05/09 08:06:02;;;;;;;14.13;9.02;;;16.10;99.90;;;;;;5011848;28;20030;-71
2022/05/09 08:08:29;;;;;;;14.23;9.43;;;16.20;99.90;;;;;;5010550;28;20118;-72
2022/05/09 08:10:57;;;;;;;11.18;8.43;;;16.30;99.90;;;;;;5011895;28;21139;-70
2022/05/09 08:13:25;;;;;;;12.32;8.55;;;16.40;99.90;;;;;;5012714;28;20390;-72
2022/05/09 08:15:51;;;;;;;9.35;7.40;;;16.50;99.90;;;;;;5011129;28;20022;-70
2022/05/09 08:18:19;;;;;;;13.15;8.57;;;16.60;99.90;;;;;;5017983;28;20088;-69
2022/05/09 08:20:46;;;;;;;10.45;8.15;;;16.60;99.90;;;;;;5011087;28;20087;-72
2022/05/09 08:23:16;;;;;;;10.75;8.10;;;16.70;99.90;;;;;;5012434;28;20109;-72
2022/05/09 08:25:44;;;;;;;10.70;8.23;;;16.80;99.90;;;;;;5011017;28;20032;-72
2022/05/09 08:28:10;;;;;;;11.57;7.60;;;16.80;99.90;;;;;;5010440;28;20030;-72
2022/05/09 08:30:37;;;;;;;9.13;7.90;;;16.80;99.90;;;;;;5014772;28;20124;-72
2022/05/09 08:33:05;;;;;;;11.27;8.45;;;16.80;99.90;;;;;;5015186;28;20057;-72
2022/05/09 08:35:32;;;;;;;12.45;7.88;;;16.80;99.90;;;;;;5015805;28;20509;-72
2022/05/09 08:37:57;;;;;;;10.63;7.72;;;16.80;99.90;;;;;;5012466;28;20668;-72
2022/05/09 08:40:49;;;;;;;13.60;8.07;;;16.80;99.90;;;;;;5017199;28;20056;-72
2022/05/09 08:43:17;;;;;;;10.70;7.50;;;16.80;99.90;;;;;;4989742;28;20038;-73
2022/05/09 08:45:52;;;;;;;11.10;8.18;;;16.90;99.90;;;;;;5012829;28;20034;-73
2022/05/09 08:48:43;;;;;;;13.73;8.38;;;16.90;99.90;;;;;;5011366;28;20030;-72
2022/05/09 08:51:28;;;;;;;10.80;7.80;;;17.00;99.90;;;;;;5010725;28;20475;-73
2022/05/09 08:53:59;;;;;;;10.50;7.50;;;17.10;99.90;;;;;;5009092;28;20026;-73
2022/05/09 08:56:29;;;;;;;12.85;7.40;;;17.20;99.90;;;;;;5010020;28;20034;-71
2022/05/09 08:59:09;;;;;;;18.73;8.60;;;17.20;99.90;;;;;;5017834;28;20037;-72
2022/05/09 09:02:19;;;;;;;13.55;7.35;;;17.30;99.90;;;;;;5007751;28;20113;-73
2022/05/09 09:04:52;;;;;;;9.88;7.40;;;17.30;99.90;;;;;;5016521;28;20120;-72
2022/05/09 09:07:34;;;;;;;10.10;6.68;;;17.50;99.90;;;;;;5012078;28;20041;-72
2022/05/09 09:10:20;;;;;;;10.73;7.40;;;17.50;99.90;;;;;;5005863;28;20025;-71
2022/05/09 09:12:51;;;;;;;8.95;6.63;;;17.60;99.90;;;;;;5009306;28;20033;-71
2022/05/09 09:15:24;;;;;;;10.00;6.90;;;17.80;99.90;;;;;;5015648;28;20129;-71
2022/05/09 09:18:05;;;;;;;10.55;7.68;;;17.80;99.90;;;;;;5020145;28;20018;-71
2022/05/09 09:21:00;;;;;;;10.85;8.27;;;17.80;99.90;;;;;;5011315;28;20596;-71
2022/05/09 09:23:51;;;;;;;10.20;7.60;;;17.90;99.90;;;;;;5011529;28;20030;-71
2022/05/09 09:26:29;;;;;;;10.80;7.40;;;17.90;99.90;;;;;;5014183;28;20053;-71
2022/05/09 09:29:06;;;;;;;8.00;6.88;;;17.90;99.90;;;;;;5013852;28;20482;-72
2022/05/09 09:31:36;;;;;;;9.63;7.07;;;18.00;99.90;;;;;;5010393;28;20029;-71
2022/05/09 09:34:14;;;;;;;9.18;6.30;;;18.00;99.90;;;;;;5012658;28;20026;-72
2022/05/09 09:36:48;;;;;;;9.25;6.95;;;18.10;99.90;;;;;;5011559;28;20026;-71
2022/05/09 09:39:19;;;;;;;9.45;6.10;;;18.10;99.90;;;;;;5013055;28;20426;-70
2022/05/09 09:41:46;;;;;;;9.15;6.32;;;18.00;99.90;;;;;;5010560;28;20025;-71
2022/05/09 09:44:19;;;;;;;9.60;7.60;;;18.00;99.90;;;;;;5011823;28;20378;-70
2022/05/09 09:47:25;;;;;;;9.88;8.00;;;18.20;99.90;;;;;;5014493;28;20037;-71
2022/05/09 09:50:23;;;;;;;10.35;6.78;;;18.30;99.90;;;;;;5016917;28;20410;-71
2022/05/09 09:52:52;;;;;;;7.80;6.45;;;18.40;99.90;;;;;;5000553;28;20105;-70
2022/05/09 09:55:32;;;;;;;9.20;6.47;;;18.40;99.90;;;;;;5004442;28;20482;-70
2022/05/09 09:58:19;;;;;;;10.82;6.63;;;18.50;99.90;;;;;;5012288;28;20033;-71
2022/05/09 10:00:45;;;;;;;11.18;7.60;;;18.60;99.90;;;;;;5008581;28;20487;-70
2022/05/09 10:03:26;;;;;;;11.20;7.53;;;18.70;99.90;;;;;;5009983;28;20105;-72
2022/05/09 10:05:54;;;;;;;9.75;7.72;;;18.80;99.90;;;;;;5010899;28;20014;-72
2022/05/09 10:08:38;;;;;;;9.70;7.10;;;19.00;99.90;;;;;;5008832;28;20030;-72
2022/05/09 10:11:04;;;;;;;;;;;19.20;99.90;;;;;;5010572;28;20037;-71
2022/05/09 10:13:41;;;;;;;10.13;7.82;;;19.50;99.90;;;;;;5010191;28;19916;-72
2022/05/09 10:16:12;;;;;;;11.73;7.32;;;19.70;99.90;;;;;;5004664;28;20463;-72
2022/05/09 10:18:39;;;;;;;10.73;6.95;;;19.70;99.90;;;;;;5007860;28;20498;-70
2022/05/09 10:24:47;;;;;;;9.55;7.15;;;19.90;99.90;;;;;;5010252;28;20037;-71
2022/05/09 10:26:58;;;;;;;15.93;6.60;;;20.00;99.90;;;;;;5011184;28;20033;-72
2022/05/09 10:29:29;;;;;;;6.10;4.18;;;20.10;99.90;;;;;;5011025;28;20033;-71
2022/05/09 10:32:00;;;;;;;6.05;4.57;;;20.20;97.60;;;;;;5006896;28;20045;-71
2022/05/09 10:34:55;;;;;;;8.27;5.15;;;20.30;96.30;;;;;;4992257;28;20048;-71
2022/05/09 10:37:24;;;;;;;7.57;4.90;;;20.50;95.60;;;;;;5017883;28;20132;-70
2022/05/09 10:40:07;;;;;;;5.80;3.83;;;20.70;94.20;;;;;;5026971;28;20049;-71
2022/05/09 10:42:46;;;;;;;5.68;4.25;;;20.70;93.30;;;;;;5028211;28;20041;-72
2022/05/09 10:45:20;;;;;;;6.32;4.53;;;20.80;92.40;;;;;;5027830;28;20029;-71
2022/05/09 10:47:55;;;;;;;5.10;4.30;;;20.80;91.60;;;;;;5032891;28;20018;-71
2022/05/09 10:50:38;;;;;;;5.90;4.30;;;20.80;91.40;;;;;;5029008;28;20075;-71
2022/05/09 10:53:53;;;;;;;7.68;4.85;;;20.70;91.00;;;;;;5023096;28;20863;-70
2022/05/09 10:57:00;;;;;;;6.55;4.28;;;20.70;91.10;;;;;;5028232;28;20057;-71
2022/05/09 10:59:29;;;;;;;8.15;4.38;;;20.70;90.80;;;;;;5026232;28;20577;-71
2022/05/09 11:02:10;;;;;;;5.38;4.10;;;20.90;90.80;;;;;;5031637;28;20364;-73
2022/05/09 11:04:37;;;;;;;4.65;3.92;;;21.10;90.50;;;;;;5034522;28;20025;-72
2022/05/09 11:07:08;;;;;;;5.05;3.88;;;21.30;89.20;;;;;;5030487;28;20490;-71
2022/05/09 11:09:49;;;;;;;6.10;4.45;;;21.40;88.80;;;;;;5027885;28;20030;-72
2022/05/09 11:12:19;;;;;;;4.35;3.95;;;21.40;87.70;;;;;;5031294;28;20018;-73
2022/05/09 11:15:23;;;;;;;5.65;4.85;;;21.40;87.30;;;;;;5028405;28;20095;-70
2022/05/09 11:18:10;;;;;;;6.13;4.20;;;21.50;87.40;;;;;;5028014;28;20045;-70
2022/05/09 11:21:27;;;;;;;5.25;4.45;;;21.60;87.40;;;;;;5028898;28;20302;-71
2022/05/09 11:24:03;;;;;;;7.15;4.97;;;21.80;86.10;;;;;;5022349;28;20045;-71
2022/05/09 11:26:32;;;;;;;5.20;4.10;;;21.90;84.80;;;;;;5031170;28;20109;-73
2022/05/09 11:29:18;;;;;;;7.97;4.38;;;21.80;85.70;;;;;;5030716;28;20710;-73
2022/05/09 11:31:55;;;;;;;4.13;3.63;;;21.80;84.90;;;;;;5032662;28;20088;-70
2022/05/09 11:34:45;;;;;;;5.18;3.88;;;21.80;85.10;;;;;;5039204;28;20357;-70
2022/05/09 11:37:24;;;;;;;4.40;3.72;;;21.70;83.40;;;;;;5029102;28;20159;-69
2022/05/09 11:40:12;;;;;;;5.38;4.45;;;21.70;83.90;;;;;;5025222;28;20021;-70
2022/05/09 11:43:29;;;;;;;5.13;4.38;;;21.60;84.40;;;;;;5029603;28;20405;-69
2022/05/09 11:46:03;;;;;;;5.10;3.83;;;21.50;83.20;;;;;;5029465;28;21035;-72
2022/05/09 11:48:44;;;;;;;7.95;4.20;;;21.40;83.80;;;;;;5028246;28;20022;-69
2022/05/09 11:51:28;;;;;;;4.72;4.18;;;21.40;83.70;;;;;;5024974;28;20100;-71
2022/05/09 11:54:00;;;;;;;12.05;4.20;;;21.30;83.40;;;;;;5029746;28;20096;-70
2022/05/09 11:56:28;;;;;;;5.53;4.30;;;21.20;83.30;;;;;;5025006;28;20026;-70
2022/05/09 11:58:54;;;;;;;5.88;4.65;;;21.30;84.20;;;;;;5021564;28;20457;-70
2022/05/09 12:01:57;;;;;;;7.10;4.68;;;21.40;84.10;;;;;;5040064;28;20517;-71
2022/05/09 12:04:30;;;;;;;4.57;3.97;;;21.50;83.80;;;;;;5027994;28;20025;-71
2022/05/09 12:06:56;;;;;;;5.25;4.13;;;21.70;83.40;;;;;;5025885;28;20398;-71
2022/05/09 12:09:54;;;;;;;4.60;4.20;;;21.60;83.70;;;;;;5025976;28;20081;-71
2022/05/09 12:12:56;;;;;;;5.40;3.70;;;21.80;82.90;;;;;;5025748;28;20022;-70
2022/05/09 12:15:21;;;;;;;7.75;4.38;;;21.70;83.70;;;;;;5023326;28;20087;-71
2022/05/09 12:18:02;;;;;;;6.18;4.50;;;21.70;83.20;;;;;;5024739;28;20044;-70
2022/05/09 12:20:28;;;;;;;5.13;4.60;;;21.60;83.10;;;;;;5023046;28;20034;-71
2022/05/09 12:22:58;;;;;;;5.43;4.45;;;21.50;83.20;;;;;;5025367;28;20072;-70
2022/05/09 12:25:36;;;;;;;5.22;4.28;;;21.40;83.60;;;;;;5027303;28;20549;-71
2022/05/09 12:28:23;;;;;;;5.50;4.45;;;21.30;83.90;;;;;;5026841;28;20076;-70
2022/05/09 12:30:56;;;;;;;6.15;4.30;;;21.20;84.20;;;;;;5019071;28;20029;-70
2022/05/09 12:33:25;;;;;;;5.95;4.85;;;21.10;84.30;;;;;;5018905;28;20121;-70
2022/05/09 12:35:54;;;;;;;5.72;4.53;;;21.10;84.70;;;;;;5029114;28;20112;-71
2022/05/09 12:38:33;;;;;;;5.00;4.35;;;21.10;84.80;;;;;;5027639;28;20767;-71
2022/05/09 12:41:10;;;;;;;5.82;4.20;;;21.10;85.00;;;;;;5023944;28;20462;-70
2022/05/09 12:43:38;;;;;;;5.25;4.47;;;21.10;84.60;;;;;;5022753;28;20036;-70
2022/05/09 12:46:06;;;;;;;6.25;4.50;;;21.10;84.30;;;;;;5024261;28;20029;-70
2022/05/09 12:48:35;;;;;;;7.85;4.40;;;21.10;84.70;;;;;;5023662;28;20120;-70
2022/05/09 12:51:04;;;;;;;5.32;4.35;;;21.10;84.90;;;;;;5021711;28;20025;-71
2022/05/09 12:53:33;;;;;;;4.85;4.35;;;21.20;84.60;;;;;;5023997;28;20031;-69
2022/05/09 12:56:07;;;;;;;6.40;4.45;;;21.20;84.50;;;;;;5024108;28;20113;-70
2022/05/09 12:58:34;;;;;;;;;;;21.20;84.40;;;;;;5004917;28;20039;-71
2022/05/09 13:01:04;;;;;;;7.05;4.82;;;21.20;83.80;;;;;;5025968;28;19923;-70
2022/05/09 13:03:31;;;;;;;5.75;4.53;;;21.20;84.60;;;;;;5025334;28;20034;-70
2022/05/09 13:06:10;;;;;;;6.82;3.80;;;21.30;84.10;;;;;;5021398;28;22279;-70
2022/05/09 13:08:37;;;;;;;6.82;4.22;;;21.30;84.20;;;;;;5020779;28;20552;-70
2022/05/09 13:11:14;;;;;;;5.10;4.60;;;21.40;83.70;;;;;;5018767;28;20048;-70
2022/05/09 13:13:41;;;;;;;5.13;4.30;;;21.50;83.60;;;;;;5024409;28;20021;-70
2022/05/09 13:16:09;;;;;;;6.45;4.55;;;21.50;82.80;;;;;;5022088;28;20144;-71